GCHU weather

Hospital Universitario De Canarias Heliport
Tenerife Island, Canary Islands, Spain

Public forecast

Using degrees Celsius for public forecast. Weather courtesy of forecast.io.

METAR (pilot weather report)

Closest report is Tenerife Norte Airport, 3.1 nm (5.7 km) WNW. Retrieved 2019/05/19 21:30 UTC (24 minutes ago):

GCXO 192130Z 31017KT 9999 1900NW BCFG FEW000 SCT005 BKN013 14/13 Q1019 NOSIG

TAF (pilot weather forecast)

Closest forecast is Tenerife Norte Airport, 3.1 nm (5.7 km) WNW. Retrieved 2019/05/19 21:27 UTC (27 minutes ago):

TAF GCXO 192000Z 1921/2021 32018KT 9999 BKN012 TX20/2014Z TN13/2006Z PROB40 TEMPO 1921/2013 3000 BCFG BKN008 PROB40 TEMPO 1921/2009 1500 DZ BCFG BKN004